createdAt,value
2019-05-13T05:54:42.863Z,27.30
2019-05-13T06:44:45.083Z,17.70
2019-05-13T06:55:17.045Z,13.03
2019-05-13T07:19:18.616Z,9.08
2019-05-13T08:48:14.474Z,5.83
2019-05-13T08:50:44.546Z,5.72
2019-05-13T08:53:16.056Z,6.60
2019-05-13T08:55:45.497Z,5.30
2019-05-13T08:58:14.953Z,7.95
2019-05-13T09:00:52.715Z,5.95
2019-05-13T09:03:22.309Z,5.45
2019-05-13T09:05:53.453Z,6.45
2019-05-13T09:08:24.357Z,6.05
2019-05-13T09:10:56.889Z,8.80
2019-05-13T09:13:26.116Z,8.80
2019-05-13T09:15:55.623Z,8.25
2019-05-13T09:18:25.092Z,7.65
2019-05-13T09:20:54.529Z,6.15
2019-05-13T09:23:24.061Z,6.03
2019-05-13T09:25:53.577Z,4.90
2019-05-13T09:28:23.031Z,5.72
2019-05-13T09:30:53.337Z,5.97
2019-05-13T09:33:24.116Z,6.75
2019-05-13T09:35:53.863Z,4.78
2019-05-13T09:38:23.338Z,5.17
2019-05-13T09:40:53.315Z,5.58
2019-05-13T09:43:23.044Z,5.65
2019-05-13T09:45:52.703Z,6.30
2019-05-13T09:48:22.927Z,5.03
2019-05-13T09:50:52.491Z,3.98
2019-05-13T09:53:22.587Z,5.00
2019-05-13T09:55:52.545Z,5.80
2019-05-13T09:58:22.645Z,7.10
2019-05-13T10:00:53.028Z,5.08
2019-05-13T10:05:53.892Z,5.65
2019-05-13T10:08:23.403Z,5.22
2019-05-13T10:10:53.085Z,8.15
2019-05-13T10:13:23.310Z,3.55
2019-05-13T10:15:53.074Z,9.10
2019-05-13T10:18:25.157Z,4.12
2019-05-13T10:20:58.935Z,4.33
2019-05-13T10:23:32.500Z,4.95
2019-05-13T10:26:03.910Z,4.70
2019-05-13T10:28:33.863Z,6.47
2019-05-13T10:31:04.157Z,5.55
2019-05-13T10:33:35.088Z,5.72
2019-05-13T10:36:04.852Z,5.20
2019-05-13T10:38:34.512Z,6.17
2019-05-13T10:41:04.097Z,5.67
2019-05-13T10:43:36.797Z,6.70
2019-05-13T10:46:04.926Z,5.17
2019-05-13T10:48:34.346Z,7.15
2019-05-13T10:51:04.049Z,7.25
2019-05-13T10:53:33.588Z,4.47
2019-05-13T10:56:03.527Z,4.95
2019-05-13T10:58:33.143Z,3.40
2019-05-13T11:01:03.207Z,7.92
2019-05-13T11:03:33.279Z,5.10
2019-05-13T11:06:02.885Z,6.67
2019-05-13T11:08:33.395Z,5.85
2019-05-13T11:11:03.051Z,6.55
2019-05-13T11:13:50.817Z,6.75
2019-05-13T11:16:03.621Z,5.42
2019-05-13T11:18:33.066Z,6.42
2019-05-13T11:21:03.589Z,7.85
2019-05-13T11:23:33.030Z,7.15
2019-05-13T11:26:03.342Z,5.80
2019-05-13T11:28:33.352Z,6.40
2019-05-13T11:31:03.527Z,5.42
2019-05-13T11:33:33.301Z,6.05
2019-05-13T11:36:03.473Z,4.33
2019-05-13T11:38:33.303Z,5.12
2019-05-13T11:41:03.239Z,6.90
2019-05-13T11:43:33.798Z,4.78
2019-05-13T11:46:03.605Z,4.85
2019-05-13T11:48:33.033Z,4.72
2019-05-13T11:51:03.987Z,6.22
2019-05-13T11:53:37.671Z,9.23
2019-05-13T11:56:05.974Z,8.58
2019-05-13T11:58:35.386Z,5.95
2019-05-13T12:01:05.712Z,4.25
2019-05-13T12:03:35.160Z,8.28
2019-05-13T12:06:04.773Z,3.90
2019-05-13T12:08:34.547Z,8.25
2019-05-13T12:11:04.733Z,3.52
2019-05-13T12:13:35.289Z,4.60
2019-05-13T12:16:05.807Z,6.83
2019-05-13T12:18:39.323Z,4.62
2019-05-13T12:21:06.393Z,6.28
2019-05-13T12:23:35.840Z,5.30
2019-05-13T12:26:05.506Z,3.75
2019-05-13T12:28:34.892Z,7.58
2019-05-13T12:31:04.624Z,4.30
2019-05-13T12:33:34.064Z,5.20
2019-05-13T12:36:03.581Z,5.08
2019-05-13T12:38:33.631Z,4.67
2019-05-13T12:41:05.364Z,6.78
2019-05-13T12:43:34.482Z,3.30
2019-05-13T12:46:04.264Z,5.47
2019-05-13T12:48:33.831Z,4.58
2019-05-13T12:51:03.434Z,6.58
2019-05-13T12:53:32.934Z,5.10
2019-05-13T12:58:34.444Z,4.67
2019-05-13T13:01:04.102Z,4.95
2019-05-13T13:03:33.644Z,3.25
2019-05-13T13:06:25.910Z,4.03
2019-05-13T13:08:43.738Z,3.55
2019-05-13T13:11:05.679Z,4.37
2019-05-13T13:13:56.859Z,3.47
2019-05-13T13:16:06.508Z,3.27
2019-05-13T13:18:36.404Z,4.80
2019-05-13T13:21:07.725Z,3.17
2019-05-13T13:23:37.001Z,4.40
2019-05-13T13:26:13.971Z,3.85
2019-05-13T13:28:37.517Z,4.15
2019-05-13T13:31:07.019Z,2.62
2019-05-13T13:33:36.476Z,5.62
2019-05-13T13:36:05.936Z,2.92
2019-05-13T13:38:36.178Z,4.65
2019-05-13T13:41:05.747Z,4.92
2019-05-13T13:43:36.859Z,5.20
2019-05-13T13:46:23.165Z,3.62
2019-05-13T13:48:37.343Z,2.47
2019-05-13T13:51:06.780Z,5.72
2019-05-13T13:53:36.292Z,4.08
2019-05-13T13:56:05.681Z,4.05
2019-05-13T13:58:35.208Z,2.47
2019-05-13T14:01:11.882Z,3.83
2019-05-13T14:03:35.803Z,2.62
2019-05-13T14:06:06.547Z,2.50
2019-05-13T14:06:25.463Z,5.33
2019-05-13T14:06:35.508Z,3.75
2019-05-13T14:08:36.684Z,3.37
2019-05-13T14:11:06.153Z,4.42
2019-05-13T14:13:35.619Z,4.90
2019-05-13T14:16:05.132Z,3.87
2019-05-13T14:18:34.681Z,4.17
2019-05-13T14:21:04.246Z,4.05
2019-05-13T14:23:33.710Z,2.98
2019-05-13T14:26:03.154Z,4.42
2019-05-13T14:28:32.939Z,3.02
2019-05-13T14:31:02.471Z,3.62
2019-05-13T14:33:35.225Z,3.70
2019-05-13T14:36:03.061Z,5.87
2019-05-13T14:38:32.937Z,3.22
2019-05-13T14:41:03.496Z,2.22
2019-05-13T14:43:33.132Z,5.10
2019-05-13T14:46:02.722Z,2.85
2019-05-13T14:48:33.319Z,5.72
2019-05-13T14:51:02.731Z,3.52
2019-05-13T14:53:32.568Z,4.30
2019-05-13T14:56:03.318Z,2.70
2019-05-13T14:58:33.096Z,3.20
2019-05-13T15:01:15.711Z,2.15
2019-05-13T15:03:33.889Z,2.70
2019-05-13T15:06:03.766Z,3.33
2019-05-13T15:08:33.289Z,3.62
2019-05-13T15:11:03.912Z,3.30
2019-05-13T15:13:33.373Z,4.45
2019-05-13T15:16:02.809Z,2.20
2019-05-13T15:18:33.402Z,4.25
2019-05-13T15:21:02.912Z,3.15
2019-05-13T15:23:32.402Z,3.02
2019-05-13T15:26:02.414Z,3.87
2019-05-13T15:28:32.128Z,3.05
2019-05-13T15:31:02.625Z,3.37
2019-05-13T15:33:32.884Z,3.95
2019-05-13T15:36:02.584Z,3.87
2019-05-13T15:38:32.281Z,2.70
2019-05-13T15:41:02.219Z,3.60
2019-05-13T15:43:32.147Z,3.47
2019-05-13T15:46:02.752Z,4.08
2019-05-13T15:48:32.503Z,2.20
2019-05-13T15:51:02.336Z,4.70
2019-05-13T15:53:32.226Z,2.98
2019-05-13T15:56:02.705Z,3.15
2019-05-13T15:58:41.366Z,4.40
2019-05-13T16:01:04.442Z,2.58
2019-05-13T16:03:33.964Z,4.33
2019-05-13T16:06:03.561Z,2.80
2019-05-13T16:08:33.007Z,3.02
2019-05-13T16:11:02.595Z,3.20
2019-05-13T16:13:33.067Z,5.05
2019-05-13T16:16:02.724Z,3.85
2019-05-13T16:18:32.167Z,2.95
2019-05-13T16:21:02.004Z,2.67
2019-05-13T16:23:32.702Z,2.08
2019-05-13T16:26:02.171Z,2.02
2019-05-13T16:28:32.391Z,3.37
2019-05-13T16:31:02.648Z,4.10
2019-05-13T16:33:32.282Z,4.62
2019-05-13T16:36:02.635Z,4.42
2019-05-13T16:38:32.982Z,9.10
2019-05-13T16:41:02.743Z,6.12
2019-05-13T16:43:32.477Z,5.42
2019-05-13T16:46:01.929Z,5.62
2019-05-13T16:48:32.353Z,5.60
2019-05-13T16:51:02.092Z,4.97
2019-05-13T16:53:31.781Z,9.03
2019-05-13T16:56:01.958Z,4.47
2019-05-13T16:58:32.508Z,5.80
2019-05-13T17:01:03.836Z,6.62
2019-05-13T17:03:33.338Z,5.10
2019-05-13T17:06:02.876Z,7.20
2019-05-13T17:08:32.375Z,6.30
2019-05-13T17:11:02.344Z,8.28
2019-05-13T17:13:31.842Z,10.95
2019-05-13T17:16:01.723Z,8.43
2019-05-13T17:18:32.513Z,8.75
2019-05-13T17:21:03.185Z,10.60
2019-05-13T17:23:32.632Z,6.70
2019-05-13T17:26:02.761Z,7.95
2019-05-13T17:28:34.171Z,9.03
2019-05-13T17:31:03.559Z,6.03
2019-05-13T17:33:33.098Z,6.67
2019-05-13T17:36:03.760Z,7.62
2019-05-13T17:38:33.224Z,6.67
2019-05-13T17:41:02.735Z,6.87
2019-05-13T17:43:32.389Z,7.87
2019-05-13T17:46:02.271Z,7.90
2019-05-13T17:48:32.957Z,10.55
2019-05-13T17:51:02.747Z,6.72
2019-05-13T17:53:32.687Z,8.05
2019-05-13T17:56:03.214Z,4.58
2019-05-13T17:58:32.676Z,8.75
2019-05-13T18:01:02.189Z,7.92
2019-05-13T18:03:32.245Z,8.60
2019-05-13T18:06:02.717Z,5.30
2019-05-13T18:08:32.333Z,6.83
2019-05-13T18:11:02.571Z,6.37
2019-05-13T18:13:32.501Z,7.85
2019-05-13T18:16:02.704Z,7.45
2019-05-13T18:18:42.541Z,7.22
2019-05-13T18:21:03.965Z,7.10
2019-05-13T18:23:33.415Z,9.03
2019-05-13T18:26:02.928Z,7.47
2019-05-13T18:28:32.384Z,10.53
2019-05-13T18:31:01.980Z,6.60
2019-05-13T18:33:32.112Z,9.15
2019-05-13T18:36:02.143Z,6.30
2019-05-13T18:38:31.608Z,6.35
2019-05-13T18:41:01.738Z,6.55
2019-05-13T18:43:32.543Z,4.78
2019-05-13T18:46:02.355Z,4.58
2019-05-13T18:48:32.389Z,8.93
2019-05-13T18:51:01.933Z,7.83
2019-05-13T18:53:32.094Z,5.92
2019-05-13T18:56:02.192Z,6.28
2019-05-13T18:58:31.922Z,5.55
2019-05-13T19:01:01.582Z,6.35
2019-05-13T19:03:32.394Z,5.55
2019-05-13T19:06:02.027Z,5.83
2019-05-13T19:08:32.058Z,8.85
2019-05-13T19:11:01.873Z,6.47
2019-05-13T19:13:32.368Z,6.55
2019-05-13T19:16:03.740Z,7.85
2019-05-13T19:18:33.293Z,6.35
2019-05-13T19:21:05.689Z,6.55
2019-05-13T19:23:35.147Z,13.68
2019-05-13T19:26:04.661Z,6.15
2019-05-13T19:28:35.259Z,6.50
2019-05-13T19:31:04.751Z,6.25
2019-05-13T19:33:34.225Z,7.25
2019-05-13T19:36:03.715Z,6.53
2019-05-13T19:38:33.250Z,11.28
2019-05-13T19:41:02.702Z,6.58
2019-05-13T19:43:32.190Z,7.37
2019-05-13T19:46:01.914Z,7.03
2019-05-13T19:48:32.560Z,12.80
2019-05-13T19:51:05.116Z,8.38
2019-05-13T19:53:34.708Z,8.83
2019-05-13T19:56:04.199Z,9.03
2019-05-13T19:58:33.755Z,7.22
2019-05-13T20:01:04.386Z,8.43
2019-05-13T20:03:33.857Z,12.00
2019-05-13T20:06:03.283Z,8.15
2019-05-13T20:08:32.785Z,8.43
2019-05-13T20:11:02.454Z,6.50
2019-05-13T20:13:31.898Z,9.23
2019-05-13T20:16:01.665Z,4.50
2019-05-13T20:18:32.145Z,5.67
2019-05-13T20:21:02.888Z,6.92
2019-05-13T20:23:32.377Z,6.65
2019-05-13T20:26:01.827Z,6.87
2019-05-13T20:28:31.826Z,6.75
2019-05-13T20:31:01.861Z,9.05
2019-05-13T20:33:32.310Z,8.10
2019-05-13T20:36:02.813Z,8.63
2019-05-13T20:38:32.249Z,8.28
2019-05-13T20:41:01.706Z,6.25
2019-05-13T20:43:32.781Z,7.97
2019-05-13T20:46:02.343Z,6.20
2019-05-13T20:48:32.167Z,3.87
2019-05-13T20:51:02.820Z,3.72
2019-05-13T20:53:32.321Z,7.00
2019-05-13T20:56:02.020Z,3.67
2019-05-13T20:58:32.038Z,6.67
2019-05-13T21:01:02.314Z,3.45
2019-05-13T21:03:32.149Z,5.75
2019-05-13T21:06:01.595Z,6.03
2019-05-13T21:08:32.141Z,2.90
2019-05-13T21:11:02.411Z,3.72
2019-05-13T21:13:32.028Z,5.35
2019-05-13T21:16:02.233Z,3.52
2019-05-13T21:18:31.968Z,7.03
2019-05-13T21:21:01.483Z,5.72
2019-05-13T21:23:31.389Z,4.55
2019-05-13T21:26:01.642Z,2.83
2019-05-13T21:28:31.290Z,3.35
2019-05-13T21:31:02.228Z,4.22
2019-05-13T21:33:31.780Z,4.45
2019-05-13T21:36:01.820Z,7.15
2019-05-13T21:38:32.407Z,3.60
2019-05-13T21:41:02.200Z,5.50
2019-05-13T21:43:32.381Z,5.53
2019-05-13T21:46:02.300Z,3.67
2019-05-13T21:48:32.409Z,4.40
2019-05-13T21:51:02.208Z,6.05
2019-05-13T21:53:32.869Z,5.17
2019-05-13T21:56:02.542Z,4.37
2019-05-13T21:58:32.062Z,3.55
2019-05-13T22:01:02.432Z,4.70
2019-05-13T22:03:33.576Z,6.70
2019-05-13T22:06:03.295Z,6.05
2019-05-13T22:08:32.796Z,6.00
2019-05-13T22:11:02.324Z,4.22
2019-05-13T22:13:31.833Z,3.60
2019-05-13T22:16:01.802Z,2.37
2019-05-13T22:18:31.655Z,4.58
2019-05-13T22:21:01.549Z,6.55
2019-05-13T22:23:32.074Z,7.03
2019-05-13T22:26:01.990Z,4.62
2019-05-13T22:28:31.551Z,7.78
2019-05-13T22:31:01.522Z,4.72
2019-05-13T22:33:32.381Z,4.53
2019-05-13T22:36:02.126Z,2.77
2019-05-13T22:38:32.238Z,6.45
2019-05-13T22:41:02.319Z,2.98
2019-05-13T22:43:32.193Z,6.53
2019-05-13T22:46:01.887Z,3.98
2019-05-13T22:48:31.917Z,5.78
2019-05-13T22:51:01.653Z,9.18
2019-05-13T22:53:31.788Z,6.33
2019-05-13T22:56:01.447Z,4.80
2019-05-13T22:58:32.095Z,3.50
2019-05-13T23:01:02.569Z,7.22
2019-05-13T23:03:32.478Z,6.55
2019-05-13T23:06:01.998Z,9.15
2019-05-13T23:08:32.392Z,7.55
2019-05-13T23:11:02.308Z,5.25
2019-05-13T23:13:31.873Z,4.72
2019-05-13T23:16:02.318Z,5.58
2019-05-13T23:18:32.081Z,3.35
2019-05-13T23:21:02.379Z,5.05
2019-05-13T23:23:32.063Z,6.53
2019-05-13T23:26:01.485Z,4.58
2019-05-13T23:28:32.282Z,5.10
2019-05-13T23:31:01.940Z,5.55
2019-05-13T23:33:31.538Z,7.42
2019-05-13T23:36:01.521Z,5.72
2019-05-13T23:38:32.036Z,6.58
2019-05-13T23:41:02.163Z,3.77
2019-05-13T23:43:31.885Z,4.33
2019-05-13T23:46:01.401Z,4.60
2019-05-13T23:48:32.141Z,4.30
2019-05-13T23:51:01.693Z,5.37
2019-05-13T23:53:32.217Z,2.72
2019-05-13T23:56:02.081Z,4.25
2019-05-13T23:58:32.142Z,11.68
